ADDS METAR Data INFO
IDs: Format: Raw Decoded Include TAF

Data at: 0211 UTC 19 Jul 2018

KELP 190151Z 26009KT 10SM CLR 36/07 A3002 RMK AO2 SLP079 T03560067
KELP 190051Z 23007KT 10SM FEW110 FEW250 36/07 A3001 RMK AO2 SLP080 T03610072
KELP 182351Z 00000KT 10SM FEW110 FEW250 37/07 A3002 RMK AO2 SLP080 T03720067 10378 20339 57020
KELP 182251Z VRB05KT 10SM FEW130 FEW250 37/06 A3004 RMK AO2 SLP088 T03670056
KELP 182151Z 21008KT 10SM SCT130 SCT250 38/07 A3006 RMK AO2 SLP094 T03780067
KELP 182051Z 27009KT 10SM SCT120 SCT250 37/06 A3008 RMK AO2 SLP104 T03670061 58019
KELP 181951Z VRB04KT 10SM SCT110 SCT250 36/07 A3011 RMK AO2 SLP110 T03610072
KELP 181851Z 30010KT 10SM FEW110 FEW250 36/08 A3013 RMK AO2 SLP118 T03560083
KELP 181751Z COR 16005KT 10SM FEW100 FEW250 34/09 A3015 RMK AO2 SLP125 T03390089 10344 20228 58005
KELP 181651Z VRB03KT 10SM FEW085 FEW250 33/10 A3016 RMK AO2 SLP130 T03280100
KELP 181551Z 14005KT 10SM FEW250 31/12 A3016 RMK AO2 SLP131 T03060117
KELP 181451Z 18006KT 10SM FEW250 28/12 A3016 RMK AO2 SLP133 T02830122 51007
KELP 181351Z 19006KT 10SM FEW250 26/13 A3015 RMK AO2 SLP131 T02610133
KELP 181251Z 00000KT 10SM FEW250 24/14 A3016 RMK AO2 SLP133 T02390144
KELP 181151Z 18004KT 10SM FEW250 23/16 A3014 RMK AO2 SLP127 T02330161 10283 20228 53005
KELP 181051Z 08003KT 10SM CLR 24/16 A3013 RMK AO2 SLP123 T02390156
KELP 180951Z 00000KT 10SM CLR 25/14 A3013 RMK AO2 SLP124 T02500144
KELP 180851Z 10003KT 10SM CLR 24/16 A3013 RMK AO2 SLP123 T02440156 53000
KELP 180751Z 10004KT 10SM CLR 26/15 A3012 RMK AO2 SLP122 T02560150
KELP 180651Z 10004KT 10SM CLR 27/14 A3012 RMK AO2 SLP121 T02670139 403440200
KELP 180551Z 16005KT 10SM CLR 28/12 A3013 RMK AO2 SLP122 T02830117 10344 20283 51011
KELP 180451Z 16005KT 10SM FEW120 29/11 A3012 RMK AO2 SLP121 T02890111
KELP 180351Z 16006KT 10SM FEW120 30/11 A3010 RMK AO2 SLP115 T03000111
KELP 180251Z 17005KT 10SM FEW110 32/10 A3009 RMK AO2 SLP112 T03170100 53004
KELP 180151Z 18007KT 10SM FEW100 33/08 A3008 RMK AO2 SLP108 T03280083
KELP 180051Z 17006KT 10SM FEW100 33/08 A3007 RMK AO2 SLP106 VCSH NE T03330078
KELP 172351Z 18008G14KT 10SM FEW100 34/09 A3008 RMK AO2 SLP107 T03440089 10344 20283 56019
KELP 172251Z VRB05KT 10SM FEW095 34/09 A3010 RMK AO2 SLP114 TCU DSNT NE AND E T03440094
KELP 172151Z VRB04KT 10SM FEW085 33/12 A3012 RMK AO2 SLP123 T03280117
KELP 172051Z 00000KT 10SM FEW080 32/12 A3014 RMK AO2 SLP131 T03220122 58017
KELP 171951Z 00000KT 10SM FEW065 31/12 A3016 RMK AO2 SLP139 T03110122
KELP 171851Z VRB03KT 10SM FEW060 31/14 A3018 RMK AO2 SLP145 T03060139
KELP 171751Z VRB04KT 10SM FEW050 29/16 A3020 RMK AO2 SLP153 T02890161 10289 20206 58003
KELP 171651Z 00000KT 10SM FEW045 28/16 A3021 RMK AO2 SLP158 T02780161
KELP 171551Z 00000KT 10SM FEW040 26/17 A3021 RMK AO2 SLP162 T02610167
KELP 171451Z 00000KT 10SM CLR 24/18 A3021 RMK AO2 SLP165 T02390183 51013